createdAt,value
2023-05-04T00:01:26.929Z,7.73
2023-05-04T00:04:02.661Z,7.98
2023-05-04T00:06:34.910Z,7.96
2023-05-04T00:09:09.319Z,7.95
2023-05-04T00:11:41.490Z,7.73
2023-05-04T00:14:16.330Z,7.60
2023-05-04T00:16:48.903Z,7.40
2023-05-04T00:19:22.059Z,7.43
2023-05-04T00:21:53.866Z,7.50
2023-05-04T00:24:25.972Z,7.62
2023-05-04T00:26:58.005Z,7.54
2023-05-04T00:29:33.122Z,7.28
2023-05-04T00:32:05.530Z,7.20
2023-05-04T00:34:38.162Z,7.19
2023-05-04T00:37:10.020Z,7.12
2023-05-04T00:39:41.920Z,7.08
2023-05-04T00:42:13.363Z,7.04
2023-05-04T00:44:47.698Z,7.09
2023-05-04T00:47:20.163Z,7.09
2023-05-04T00:49:52.103Z,7.00
2023-05-04T00:52:24.606Z,6.95
2023-05-04T00:54:58.052Z,6.83
2023-05-04T00:57:29.852Z,6.96
2023-05-04T01:00:04.582Z,6.73
2023-05-04T01:02:45.431Z,6.53
2023-05-04T01:05:17.715Z,6.59
2023-05-04T01:08:00.040Z,6.60
2023-05-04T01:10:38.478Z,6.69
2023-05-04T01:13:14.629Z,6.73
2023-05-04T01:15:49.714Z,6.57
2023-05-04T01:18:21.140Z,6.68
2023-05-04T01:20:53.147Z,6.68
2023-05-04T01:23:29.720Z,6.71
2023-05-04T01:26:16.954Z,6.44
2023-05-04T01:28:55.883Z,6.34
2023-05-04T01:31:30.823Z,6.29
2023-05-04T01:34:03.791Z,6.27
2023-05-04T01:36:36.564Z,6.31
2023-05-04T01:39:12.944Z,6.20
2023-05-04T01:41:45.079Z,6.25
2023-05-04T01:44:17.963Z,6.18
2023-05-04T01:46:50.599Z,6.26
2023-05-04T01:49:22.314Z,6.33
2023-05-04T01:51:56.260Z,6.23
2023-05-04T01:54:32.812Z,6.34
2023-05-04T01:57:04.967Z,6.33
2023-05-04T01:59:37.266Z,6.40
2023-05-04T02:02:10.159Z,6.31
2023-05-04T02:04:41.874Z,6.25
2023-05-04T02:07:16.590Z,6.15
2023-05-04T02:09:50.852Z,6.17
2023-05-04T02:12:24.373Z,6.18
2023-05-04T02:14:57.580Z,6.22
2023-05-04T02:17:30.310Z,6.17
2023-05-04T02:20:02.183Z,6.40
2023-05-04T02:22:39.991Z,6.43
2023-05-04T02:25:23.060Z,6.55
2023-05-04T02:27:55.216Z,6.49
2023-05-04T02:30:29.764Z,6.43
2023-05-04T02:33:18.091Z,6.55
2023-05-04T02:35:49.383Z,6.52
2023-05-04T02:38:21.496Z,6.51
2023-05-04T02:40:56.908Z,6.62
2023-05-04T02:43:29.035Z,6.57
2023-05-04T02:46:00.924Z,6.34
2023-05-04T02:48:33.610Z,6.33
2023-05-04T02:51:06.948Z,6.27
2023-05-04T02:53:38.852Z,6.27
2023-05-04T02:56:12.723Z,6.23
2023-05-04T02:58:45.345Z,6.15
2023-05-04T03:01:18.678Z,6.21
2023-05-04T03:03:51.663Z,6.15
2023-05-04T03:06:23.052Z,6.18
2023-05-04T03:08:57.265Z,6.20
2023-05-04T03:11:31.371Z,6.29
2023-05-04T03:14:04.175Z,6.33
2023-05-04T03:16:36.142Z,6.26
2023-05-04T03:19:08.537Z,6.42
2023-05-04T03:21:48.261Z,6.54
2023-05-04T03:24:21.549Z,6.62
2023-05-04T03:26:55.615Z,6.66
2023-05-04T03:32:18.829Z,6.72
2023-05-04T03:34:50.609Z,6.75
2023-05-04T03:37:23.467Z,6.78
2023-05-04T03:39:55.491Z,6.79
2023-05-04T03:42:29.694Z,6.85
2023-05-04T03:45:03.757Z,6.88
2023-05-04T03:47:35.838Z,6.90
2023-05-04T03:50:11.725Z,6.89
2023-05-04T03:52:43.584Z,6.86
2023-05-04T03:55:15.423Z,6.86
2023-05-04T03:57:49.484Z,6.89
2023-05-04T04:00:24.830Z,6.98
2023-05-04T04:02:56.745Z,6.96
2023-05-04T04:05:28.396Z,7.01
2023-05-04T04:07:59.850Z,7.00
2023-05-04T04:10:31.815Z,7.06
2023-05-04T04:13:05.704Z,7.03
2023-05-04T04:15:37.494Z,7.10
2023-05-04T04:18:09.091Z,7.15
2023-05-04T04:20:41.398Z,7.06
2023-05-04T04:23:12.651Z,7.05
2023-05-04T04:25:44.773Z,7.01
2023-05-04T04:28:19.040Z,7.12
2023-05-04T04:30:50.605Z,7.22
2023-05-04T04:33:22.204Z,7.30
2023-05-04T04:35:55.830Z,7.30
2023-05-04T04:38:27.781Z,7.33
2023-05-04T04:41:00.056Z,7.33
2023-05-04T04:43:34.218Z,7.36
2023-05-04T04:46:07.374Z,7.33
2023-05-04T04:48:39.654Z,7.24
2023-05-04T04:51:14.259Z,7.33
2023-05-04T04:53:45.991Z,7.40
2023-05-04T04:56:18.926Z,7.38
2023-05-04T04:58:53.792Z,7.46
2023-05-04T05:01:26.876Z,7.60
2023-05-04T05:03:58.784Z,7.72
2023-05-04T05:06:30.674Z,7.74
2023-05-04T05:09:02.355Z,7.80
2023-05-04T05:11:35.870Z,7.85
2023-05-04T05:14:10.661Z,7.88
2023-05-04T05:16:44.923Z,8.08
2023-05-04T05:19:16.829Z,8.06
2023-05-04T05:21:49.730Z,8.21
2023-05-04T05:24:21.406Z,8.13
2023-05-04T05:26:53.571Z,8.11
2023-05-04T05:29:27.855Z,8.42
2023-05-04T05:31:59.655Z,8.68
2023-05-04T05:34:31.026Z,8.92
2023-05-04T05:37:03.416Z,9.07
2023-05-04T05:39:35.010Z,9.19
2023-05-04T05:42:08.313Z,9.49
2023-05-04T05:44:42.566Z,9.76
2023-05-04T05:47:16.485Z,10.43
2023-05-04T05:49:47.764Z,11.21
2023-05-04T05:52:19.522Z,11.93
2023-05-04T05:54:50.641Z,13.23
2023-05-04T05:57:26.181Z,13.38
2023-05-04T06:00:00.980Z,13.85
2023-05-04T06:02:33.085Z,14.12
2023-05-04T06:05:05.600Z,14.56
2023-05-04T06:07:37.407Z,15.51
2023-05-04T06:10:09.924Z,15.72
2023-05-04T06:12:41.717Z,15.91
2023-05-04T06:15:16.170Z,15.85
2023-05-04T06:17:50.047Z,15.31
2023-05-04T06:20:23.494Z,16.37
2023-05-04T06:22:55.109Z,16.47
2023-05-04T06:25:29.671Z,15.99
2023-05-04T06:28:01.631Z,15.47
2023-05-04T06:30:37.064Z,15.32
2023-05-04T06:33:09.220Z,15.39
2023-05-04T06:35:43.215Z,16.66
2023-05-04T06:38:17.683Z,16.33
2023-05-04T06:40:49.759Z,15.80
2023-05-04T06:43:21.728Z,15.65
2023-05-04T06:45:58.033Z,15.45
2023-05-04T06:48:30.149Z,15.30
2023-05-04T06:51:03.057Z,15.88
2023-05-04T06:53:35.530Z,16.06
2023-05-04T06:56:08.332Z,16.54
2023-05-04T06:58:40.166Z,17.41
2023-05-04T07:01:15.759Z,17.22
2023-05-04T07:03:50.073Z,16.96
2023-05-04T07:06:21.893Z,17.08
2023-05-04T07:08:53.844Z,17.66
2023-05-04T07:11:27.287Z,17.51
2023-05-04T07:14:07.934Z,16.92
2023-05-04T07:16:44.590Z,18.34
2023-05-04T07:19:17.426Z,18.47
2023-05-04T07:21:49.707Z,18.70
2023-05-04T07:24:22.207Z,18.15
2023-05-04T07:26:54.165Z,18.05
2023-05-04T07:29:26.806Z,18.43
2023-05-04T07:32:01.950Z,18.12
2023-05-04T07:34:45.214Z,18.24
2023-05-04T07:37:19.484Z,18.68
2023-05-04T07:39:52.449Z,19.60
2023-05-04T07:42:24.851Z,19.99
2023-05-04T07:44:57.685Z,19.88
2023-05-04T07:47:32.743Z,19.45
2023-05-04T07:50:10.888Z,20.61
2023-05-04T07:52:46.043Z,19.60
2023-05-04T07:55:19.444Z,19.54
2023-05-04T07:57:51.645Z,19.18
2023-05-04T08:00:25.441Z,19.66
2023-05-04T08:03:00.513Z,19.43
2023-05-04T08:05:33.573Z,20.05
2023-05-04T08:08:05.972Z,20.65
2023-05-04T08:10:41.601Z,21.20
2023-05-04T08:13:13.896Z,20.75
2023-05-04T08:15:50.540Z,21.22
2023-05-04T08:18:26.007Z,20.97
2023-05-04T08:20:58.968Z,20.18
2023-05-04T08:23:31.216Z,21.25
2023-05-04T08:26:05.898Z,21.64
2023-05-04T08:28:40.062Z,21.00
2023-05-04T08:31:13.242Z,20.33
2023-05-04T08:33:48.910Z,21.16
2023-05-04T08:36:21.853Z,22.37
2023-05-04T08:38:54.138Z,22.75
2023-05-04T08:41:27.452Z,22.51
2023-05-04T08:44:00.064Z,23.20
2023-05-04T08:46:36.491Z,22.59
2023-05-04T08:49:12.138Z,22.70
2023-05-04T08:51:45.336Z,21.91
2023-05-04T08:54:20.374Z,22.33
2023-05-04T08:56:57.298Z,22.93
2023-05-04T08:59:35.193Z,22.53
2023-05-04T09:02:08.343Z,22.27
2023-05-04T09:04:42.732Z,21.82
2023-05-04T09:07:16.705Z,20.92
2023-05-04T09:09:51.460Z,20.94
2023-05-04T09:12:23.976Z,20.76
2023-05-04T09:14:55.808Z,20.57
2023-05-04T09:17:29.949Z,20.80
2023-05-04T09:20:06.535Z,21.90
2023-05-04T09:22:39.138Z,22.68
2023-05-04T09:25:13.339Z,22.00
2023-05-04T09:27:56.789Z,21.96
2023-05-04T09:30:28.748Z,22.61
2023-05-04T09:33:00.883Z,22.38
2023-05-04T09:35:35.687Z,23.22
2023-05-04T09:38:10.682Z,23.34
2023-05-04T09:40:44.667Z,23.05
2023-05-04T09:43:16.627Z,22.86
2023-05-04T09:45:50.673Z,23.12
2023-05-04T09:48:27.347Z,23.07
2023-05-04T09:51:03.832Z,23.13
2023-05-04T09:53:39.858Z,23.27
2023-05-04T09:56:22.986Z,22.62
2023-05-04T09:58:56.138Z,22.22
2023-05-04T10:01:32.380Z,22.75
2023-05-04T10:04:06.203Z,23.05
2023-05-04T10:06:41.141Z,23.46
2023-05-04T10:09:16.061Z,22.48
2023-05-04T10:11:48.379Z,22.62
2023-05-04T10:14:21.583Z,20.60
2023-05-04T10:17:00.610Z,21.61
2023-05-04T10:19:49.470Z,22.33
2023-05-04T10:22:40.067Z,22.16
2023-05-04T10:25:33.365Z,22.87
2023-05-04T10:28:15.336Z,22.76
2023-05-04T10:30:47.913Z,22.45
2023-05-04T10:33:19.804Z,21.75
2023-05-04T10:35:56.154Z,22.78
2023-05-04T10:38:42.566Z,20.93
2023-05-04T10:41:18.530Z,21.30
2023-05-04T10:43:54.115Z,21.43
2023-05-04T10:46:27.575Z,20.98
2023-05-04T10:48:59.606Z,21.76
2023-05-04T10:51:42.377Z,22.06
2023-05-04T10:54:24.839Z,22.19
2023-05-04T10:57:06.883Z,21.13
2023-05-04T10:59:39.049Z,21.13
2023-05-04T11:02:11.734Z,20.68
2023-05-04T11:04:43.480Z,21.16
2023-05-04T11:07:15.890Z,20.43
2023-05-04T11:09:49.863Z,20.65
2023-05-04T11:12:21.776Z,20.76
2023-05-04T11:14:53.626Z,21.29
2023-05-04T11:17:28.637Z,21.33
2023-05-04T11:20:01.673Z,21.06
2023-05-04T11:22:36.225Z,21.15
2023-05-04T11:25:11.214Z,21.29
2023-05-04T11:27:46.071Z,21.17
2023-05-04T11:30:18.250Z,21.28
2023-05-04T11:32:50.837Z,21.13
2023-05-04T11:35:25.719Z,21.48
2023-05-04T11:37:58.700Z,22.27
2023-05-04T11:43:19.727Z,22.62
2023-05-04T11:45:54.548Z,22.43
2023-05-04T11:48:31.065Z,22.55
2023-05-04T11:51:06.184Z,21.83
2023-05-04T11:53:42.624Z,21.92
2023-05-04T11:56:17.138Z,21.97
2023-05-04T11:58:49.088Z,21.25
2023-05-04T12:01:21.596Z,20.76
2023-05-04T12:03:58.716Z,21.00
2023-05-04T12:06:37.061Z,20.71
2023-05-04T12:09:10.066Z,20.67
2023-05-04T12:11:44.310Z,20.75
2023-05-04T12:14:17.389Z,20.62
2023-05-04T12:17:02.232Z,20.78
2023-05-04T12:19:34.263Z,20.33
2023-05-04T12:22:06.308Z,20.14
2023-05-04T12:24:40.228Z,20.34
2023-05-04T12:27:18.924Z,20.31
2023-05-04T12:29:51.020Z,20.41
2023-05-04T12:32:22.799Z,20.46
2023-05-04T12:34:56.446Z,20.53
2023-05-04T12:37:28.971Z,20.81
2023-05-04T12:40:11.346Z,20.76
2023-05-04T12:42:53.299Z,20.55
2023-05-04T12:45:25.875Z,20.44
2023-05-04T12:47:57.332Z,20.42
2023-05-04T12:50:29.557Z,19.67
2023-05-04T12:53:04.515Z,19.88
2023-05-04T12:55:37.119Z,19.39
2023-05-04T12:58:11.723Z,19.84
2023-05-04T13:00:45.865Z,19.96
2023-05-04T13:03:18.430Z,20.11
2023-05-04T13:05:51.456Z,20.17
2023-05-04T13:08:24.161Z,20.16
2023-05-04T13:10:56.666Z,20.22
2023-05-04T13:13:31.337Z,20.22
2023-05-04T13:16:08.900Z,20.11
2023-05-04T13:18:42.914Z,20.00
2023-05-04T13:21:16.178Z,19.84
2023-05-04T13:23:48.514Z,19.24
2023-05-04T13:26:21.840Z,19.30
2023-05-04T13:28:57.595Z,19.87
2023-05-04T13:31:30.798Z,19.80
2023-05-04T13:34:03.644Z,20.06
2023-05-04T13:36:37.002Z,20.25
2023-05-04T13:39:09.798Z,20.32
2023-05-04T13:41:43.365Z,20.20
2023-05-04T13:44:18.922Z,20.11
2023-05-04T13:46:52.112Z,20.04
2023-05-04T13:49:24.638Z,20.11
2023-05-04T13:52:18.706Z,20.03
2023-05-04T13:54:51.658Z,20.24
2023-05-04T13:57:24.909Z,20.25
2023-05-04T14:00:07.499Z,20.16
2023-05-04T14:02:48.559Z,20.09
2023-05-04T14:05:22.144Z,20.17
2023-05-04T14:07:56.550Z,20.08
2023-05-04T14:10:31.787Z,19.96
2023-05-04T14:13:03.859Z,18.90
2023-05-04T14:15:38.689Z,19.26
2023-05-04T14:18:11.333Z,19.45
2023-05-04T14:20:44.560Z,19.45
2023-05-04T14:23:16.642Z,19.63
2023-05-04T14:25:57.405Z,19.64
2023-05-04T14:28:29.467Z,19.45
2023-05-04T14:31:09.505Z,19.41
2023-05-04T14:33:45.537Z,19.32
2023-05-04T14:36:17.141Z,19.29
2023-05-04T14:38:49.346Z,19.36
2023-05-04T14:41:22.262Z,19.27
2023-05-04T14:43:57.353Z,19.46
2023-05-04T14:46:34.121Z,19.53
2023-05-04T14:49:11.258Z,19.55
2023-05-04T14:52:31.585Z,19.29
2023-05-04T14:55:16.427Z,19.38
2023-05-04T14:57:51.212Z,19.49
2023-05-04T15:00:23.298Z,19.37
2023-05-04T15:03:10.321Z,19.62
2023-05-04T15:05:42.364Z,19.75
2023-05-04T15:08:13.510Z,19.89
2023-05-04T15:10:45.401Z,19.59
2023-05-04T15:13:18.297Z,19.64
2023-05-04T15:15:50.292Z,19.69
2023-05-04T15:18:26.004Z,19.69
2023-05-04T15:20:57.828Z,19.83
2023-05-04T15:23:29.478Z,19.92
2023-05-04T15:26:01.412Z,20.03
2023-05-04T15:28:33.044Z,19.93
2023-05-04T15:31:07.913Z,20.05
2023-05-04T15:33:42.089Z,20.02
2023-05-04T15:36:14.086Z,19.80
2023-05-04T15:38:46.665Z,19.72
2023-05-04T15:41:21.828Z,19.51
2023-05-04T15:43:54.051Z,19.32
2023-05-04T15:46:26.205Z,19.42
2023-05-04T15:49:00.523Z,19.46
2023-05-04T15:51:32.852Z,19.44
2023-05-04T15:54:04.395Z,19.61
2023-05-04T15:56:36.408Z,19.70
2023-05-04T15:59:08.479Z,19.68
2023-05-04T16:01:42.301Z,19.69
2023-05-04T16:04:16.928Z,19.45
2023-05-04T16:06:49.211Z,19.31
2023-05-04T16:09:21.312Z,19.46
2023-05-04T16:11:53.271Z,19.56
2023-05-04T16:14:25.398Z,19.50
2023-05-04T16:16:57.856Z,19.65
2023-05-04T16:19:33.070Z,19.62
2023-05-04T16:22:14.701Z,19.55
2023-05-04T16:25:14.344Z,19.53
2023-05-04T16:28:06.151Z,19.51
2023-05-04T16:31:11.773Z,19.30
2023-05-04T16:34:15.596Z,19.25
2023-05-04T16:37:16.105Z,19.23
2023-05-04T16:40:01.369Z,19.32
2023-05-04T16:42:46.115Z,19.38
2023-05-04T16:45:35.118Z,19.39
2023-05-04T16:48:38.645Z,19.39
2023-05-04T16:55:51.042Z,19.18
2023-05-04T16:59:08.128Z,19.13
2023-05-04T17:02:14.680Z,19.02
2023-05-04T17:05:09.802Z,18.95
2023-05-04T17:08:02.938Z,18.91
2023-05-04T17:10:57.663Z,18.86
2023-05-04T17:13:49.721Z,18.74
2023-05-04T17:16:36.153Z,18.78
2023-05-04T17:19:13.165Z,18.80
2023-05-04T17:21:49.528Z,18.78
2023-05-04T17:24:24.574Z,18.88
2023-05-04T17:27:12.401Z,18.82
2023-05-04T17:29:55.006Z,18.83
2023-05-04T17:32:28.719Z,18.68
2023-05-04T17:35:25.964Z,18.72
2023-05-04T17:38:08.117Z,18.64
2023-05-04T17:40:48.105Z,18.69
2023-05-04T17:43:29.713Z,18.63
2023-05-04T17:46:12.119Z,18.59
2023-05-04T17:48:47.094Z,18.56
2023-05-04T17:51:23.224Z,18.38
2023-05-04T17:54:06.380Z,18.24
2023-05-04T17:56:47.820Z,18.28
2023-05-04T17:59:23.404Z,18.27
2023-05-04T18:01:56.034Z,18.22
2023-05-04T18:04:32.988Z,18.14
2023-05-04T18:07:13.526Z,18.08
2023-05-04T18:09:55.347Z,18.04
2023-05-04T18:12:34.895Z,18.09
2023-05-04T18:15:19.277Z,17.98
2023-05-04T18:18:14.770Z,18.02
2023-05-04T18:27:52.571Z,17.95
2023-05-04T18:30:40.525Z,17.84
2023-05-04T18:34:34.356Z,17.78
2023-05-04T18:37:33.360Z,17.64
2023-05-04T18:40:59.719Z,17.54
2023-05-04T18:43:52.408Z,17.34
2023-05-04T18:47:07.418Z,17.30
2023-05-04T18:50:12.244Z,17.16
2023-05-04T18:53:00.789Z,17.03
2023-05-04T18:56:22.438Z,17.00
2023-05-04T18:59:42.729Z,16.91
2023-05-04T19:03:00.542Z,16.88
2023-05-04T19:05:51.284Z,16.87
2023-05-04T19:09:03.264Z,16.79
2023-05-04T19:12:13.186Z,16.76
2023-05-04T19:15:51.935Z,16.74
2023-05-04T19:19:13.139Z,16.76
2023-05-04T19:22:28.048Z,16.64
2023-05-04T19:25:34.307Z,16.65
2023-05-04T19:32:51.913Z,16.52
2023-05-04T19:40:14.407Z,16.43
2023-05-04T19:42:53.675Z,16.36
2023-05-04T19:45:45.085Z,16.22
2023-05-04T19:48:47.976Z,16.22
2023-05-04T19:51:52.053Z,16.19
2023-05-04T19:54:42.153Z,16.17
2023-05-04T19:57:38.530Z,16.18
2023-05-04T20:01:09.048Z,16.20
2023-05-04T20:04:08.069Z,16.13
2023-05-04T20:14:00.290Z,16.02
2023-05-04T20:16:53.005Z,16.01
2023-05-04T20:19:53.473Z,16.00
2023-05-04T20:22:54.206Z,15.83
2023-05-04T20:25:58.068Z,15.84
2023-05-04T20:29:00.547Z,15.82
2023-05-04T20:32:19.401Z,15.81
2023-05-04T20:35:17.807Z,15.81
2023-05-04T20:38:34.376Z,15.72
2023-05-04T20:44:31.263Z,15.40
2023-05-04T20:47:45.680Z,15.33
2023-05-04T20:55:00.573Z,15.27
2023-05-04T20:58:38.214Z,15.18
2023-05-04T21:06:32.757Z,15.00
2023-05-04T21:13:49.353Z,14.78
2023-05-04T21:17:11.412Z,14.75
2023-05-04T21:24:46.493Z,14.49
2023-05-04T21:32:09.937Z,14.38
2023-05-04T21:35:02.073Z,14.28
2023-05-04T21:38:05.607Z,14.28
2023-05-04T21:40:49.706Z,14.19
2023-05-04T21:44:08.888Z,14.10
2023-05-04T21:46:59.352Z,14.05
2023-05-04T21:49:47.023Z,13.93
2023-05-04T21:52:51.872Z,13.89
2023-05-04T21:56:20.955Z,13.86
2023-05-04T22:00:09.952Z,13.60
2023-05-04T22:03:32.805Z,13.51
2023-05-04T22:06:56.791Z,13.55
2023-05-04T22:10:26.092Z,13.38
2023-05-04T22:13:30.909Z,13.36
2023-05-04T22:16:38.708Z,13.22
2023-05-04T22:19:47.049Z,13.11
2023-05-04T22:23:05.364Z,13.07
2023-05-04T22:26:27.306Z,13.01
2023-05-04T22:29:44.563Z,12.80
2023-05-04T22:36:10.322Z,12.68
2023-05-04T22:38:42.965Z,12.58
2023-05-04T22:41:17.282Z,12.47
2023-05-04T22:43:49.212Z,12.48
2023-05-04T22:46:21.740Z,12.48
2023-05-04T22:48:56.144Z,12.43
2023-05-04T22:51:31.945Z,12.43
2023-05-04T22:54:03.981Z,12.39
2023-05-04T22:56:36.666Z,12.35
2023-05-04T22:59:08.902Z,12.21
2023-05-04T23:01:43.856Z,12.09
2023-05-04T23:04:16.863Z,11.98
2023-05-04T23:07:06.922Z,11.86
2023-05-04T23:09:45.727Z,11.86
2023-05-04T23:12:18.680Z,11.85
2023-05-04T23:14:54.543Z,11.74
2023-05-04T23:17:27.190Z,11.66
2023-05-04T23:19:59.402Z,11.61
2023-05-04T23:22:35.042Z,11.62
2023-05-04T23:25:07.841Z,11.58
2023-05-04T23:27:40.648Z,11.51
2023-05-04T23:30:13.600Z,11.52
2023-05-04T23:32:46.403Z,11.51
2023-05-04T23:35:18.681Z,11.50
2023-05-04T23:37:54.196Z,11.44
2023-05-04T23:40:26.886Z,11.43
2023-05-04T23:42:59.723Z,11.37
2023-05-04T23:45:32.059Z,11.37
2023-05-04T23:48:05.211Z,11.39
2023-05-04T23:50:37.588Z,11.40
2023-05-04T23:53:13.007Z,11.42
2023-05-04T23:55:45.330Z,11.42
2023-05-04T23:58:17.964Z,11.51
